Time;durP1;ratioP1;P1;durP2;ratioP2;P2;SDS_P1;SDS_P2;PMS_P1;PMS_P2;Temp;Humidity;BMP_temperature;BMP_pressure;BME280_temperature;BME280_humidity;BME280_pressure;Samples;Min_cycle;Max_cycle;Signal;HPM_P1;HPM_P2
2024/01/22 00:00:13;;;;;;;154.77;72.18;;;;;;;-6.82;89.64;101345.00;6202527;23;20426;-77
2024/01/22 00:03:00;;;;;;;189.05;83.10;;;;;;;-7.01;89.68;101328.63;6203129;23;20016;-77
2024/01/22 00:05:45;;;;;;;186.52;80.32;;;;;;;-6.94;89.83;101336.94;6181621;23;20020;-77
2024/01/22 00:08:31;;;;;;;185.48;76.25;;;;;;;-7.06;89.21;101321.03;6181807;23;20020;-75
2024/01/22 00:11:16;;;;;;;136.45;62.05;;;;;;;-7.04;89.12;101328.75;6204089;23;20322;-76
2024/01/22 00:14:02;;;;;;;170.55;69.72;;;;;;;-7.11;89.29;101316.97;6204176;23;20032;-77
2024/01/22 00:16:48;;;;;;;143.57;57.17;;;;;;;-7.05;89.78;101325.31;6183578;23;20310;-77
2024/01/22 00:19:33;;;;;;;99.18;44.42;;;;;;;-7.05;89.42;101317.56;6206538;23;20314;-78
2024/01/22 00:22:19;;;;;;;93.25;44.50;;;;;;;-7.04;89.58;101319.25;6205151;23;20017;-80
2024/01/22 00:25:05;;;;;;;101.72;39.95;;;;;;;-7.09;89.42;101313.41;6203683;23;20411;-76
2024/01/22 00:27:50;;;;;;;95.72;40.65;;;;;;;-7.10;89.62;101319.50;6203582;23;20020;-78
2024/01/22 00:30:36;;;;;;;103.00;43.53;;;;;;;-7.12;89.06;101321.31;6182925;23;20021;-78
2024/01/22 00:33:21;;;;;;;120.63;48.15;;;;;;;-7.17;89.90;101310.34;6203576;23;20024;-77
2024/01/22 00:36:07;;;;;;;116.30;49.78;;;;;;;-7.27;89.22;101309.03;6203650;23;20323;-77
2024/01/22 00:38:52;;;;;;;112.35;47.58;;;;;;;-7.29;89.49;101310.84;6181292;23;20028;-77
2024/01/22 00:41:37;;;;;;;110.35;48.20;;;;;;;-7.22;90.07;101302.75;6180572;23;20024;-79
2024/01/22 00:44:23;;;;;;;118.82;49.58;;;;;;;-7.14;89.52;101320.53;6202253;23;20426;-77
2024/01/22 00:47:08;;;;;;;124.90;51.55;;;;;;;-7.20;89.98;101322.56;6203330;23;20334;-78
2024/01/22 00:49:54;;;;;;;164.10;66.03;;;;;;;-7.20;90.18;101322.56;6202741;23;20016;-78
2024/01/22 00:52:39;;;;;;;169.88;67.85;;;;;;;-7.23;90.61;101319.19;6204008;23;20024;-77
2024/01/22 00:55:25;;;;;;;178.98;69.70;;;;;;;-7.34;90.08;101313.63;6160107;23;20315;-77
2024/01/22 00:58:10;;;;;;;186.93;70.93;;;;;;;-7.31;90.25;101326.41;6203291;23;20025;-78
2024/01/22 01:00:56;;;;;;;167.57;64.45;;;;;;;-7.35;89.62;101334.34;6201844;23;20322;-77
2024/01/22 01:03:41;;;;;;;141.25;56.03;;;;;;;-7.29;90.33;101334.94;6181656;23;20306;-78
2024/01/22 01:06:28;;;;;;;148.73;53.33;;;;;;;-7.29;90.25;101342.69;6204162;23;20021;-78
2024/01/22 01:09:13;;;;;;;277.65;86.50;;;;;;;-7.30;90.20;101342.75;6180667;23;20418;-78
2024/01/22 01:11:58;;;;;;;191.20;63.10;;;;;;;-7.43;90.33;101331.25;6204119;23;20016;-77
2024/01/22 01:14:44;;;;;;;151.10;50.83;;;;;;;-7.43;89.56;101333.81;6204310;23;20020;-77
2024/01/22 01:17:31;;;;;;;101.40;39.88;;;;;;;-7.45;89.94;101339.91;6181459;23;20410;-77
2024/01/22 01:20:16;;;;;;;100.03;43.25;;;;;;;-7.50;89.46;101323.75;6181315;23;20314;-77
2024/01/22 01:23:02;;;;;;;123.72;46.72;;;;;;;-7.49;90.06;101315.13;6201474;23;20021;-79
2024/01/22 01:25:47;;;;;;;149.20;54.72;;;;;;;-7.43;89.69;101328.66;6181565;23;20418;-76
2024/01/22 01:28:33;;;;;;;204.77;76.55;;;;;;;-7.55;90.18;101309.34;6203485;23;20024;-77
2024/01/22 01:31:19;;;;;;;161.30;62.10;;;;;;;-7.49;89.64;101329.75;6203414;23;20021;-79
2024/01/22 01:34:04;;;;;;;128.75;52.47;;;;;;;-7.47;89.19;101333.94;6181716;23;20411;-79
2024/01/22 01:36:50;;;;;;;116.65;48.90;;;;;;;-7.48;90.22;101327.13;6202678;23;20021;-77
2024/01/22 01:39:35;;;;;;;115.57;49.25;;;;;;;-7.53;89.73;101330.78;6180994;23;20410;-75
2024/01/22 01:42:20;;;;;;;117.47;49.80;;;;;;;-7.63;89.94;101325.16;6176092;23;20021;-78
2024/01/22 01:45:06;;;;;;;116.85;51.28;;;;;;;-7.58;89.26;101322.38;6180730;23;20318;-77
2024/01/22 01:47:51;;;;;;;139.93;58.17;;;;;;;-7.49;89.71;101322.88;6201790;23;20020;-77
2024/01/22 01:50:36;;;;;;;132.18;55.25;;;;;;;-7.60;89.69;101329.34;6180577;23;20021;-76
2024/01/22 01:53:22;;;;;;;123.30;50.55;;;;;;;-7.75;89.78;101297.25;6182001;23;20024;-78
2024/01/22 01:56:07;;;;;;;96.88;44.92;;;;;;;-7.70;90.39;101311.66;6202366;23;20021;-77
2024/01/22 01:58:54;;;;;;;73.88;36.30;;;;;;;-7.65;90.55;101320.94;6180302;23;20326;-77
2024/01/22 02:01:39;;;;;;;71.57;34.85;;;;;;;-7.64;89.68;101323.47;6203011;23;20314;-77
2024/01/22 02:04:24;;;;;;;77.70;35.13;;;;;;;-7.66;90.41;101317.53;6180195;23;20020;-77
2024/01/22 02:07:09;;;;;;;82.88;34.85;;;;;;;-7.78;89.63;101305.09;6202027;23;20020;-77
2024/01/22 02:09:54;;;;;;;107.32;44.47;;;;;;;-7.83;90.17;101313.06;6202694;23;20020;-77
2024/01/22 02:12:41;;;;;;;89.78;35.08;;;;;;;-7.85;89.89;101304.53;6201597;23;20426;-77
2024/01/22 02:15:26;;;;;;;73.53;29.65;;;;;;;-7.96;89.34;101299.78;6181542;23;20048;-77
2024/01/22 02:18:11;;;;;;;59.80;25.80;;;;;;;-8.01;90.22;101285.38;6180597;23;20021;-77
2024/01/22 02:20:56;;;;;;;41.75;22.17;;;;;;;-8.04;88.82;101273.44;6180522;23;20021;-77
2024/01/22 02:23:42;;;;;;;49.42;21.95;;;;;;;-8.01;89.95;101293.97;6159754;23;20021;-78
2024/01/22 02:26:27;;;;;;;102.15;40.30;;;;;;;-8.00;89.65;101290.47;6201380;23;20418;-77
2024/01/22 02:29:12;;;;;;;63.78;28.48;;;;;;;-8.09;88.90;101282.25;6202155;23;20024;-77
2024/01/22 02:31:58;;;;;;;70.88;31.92;;;;;;;-8.03;89.43;101294.91;6203458;23;20020;-77
2024/01/22 02:34:43;;;;;;;107.25;42.05;;;;;;;-8.12;90.08;101278.03;6203622;23;20024;-78
2024/01/22 02:37:28;;;;;;;93.38;40.78;;;;;;;-8.25;90.19;101262.22;6182579;23;20021;-78
2024/01/22 02:40:13;;;;;;;140.75;55.25;;;;;;;-8.10;90.44;101278.00;6203433;23;20319;-77
2024/01/22 02:42:59;;;;;;;127.63;51.88;;;;;;;-8.03;90.73;101284.59;6183152;23;20020;-77
2024/01/22 02:45:44;;;;;;;104.00;41.15;;;;;;;-8.06;89.45;101269.22;6203654;23;20021;-78
2024/01/22 02:48:30;;;;;;;107.10;44.25;;;;;;;-8.05;90.09;101274.34;6204189;23;20021;-77
2024/01/22 02:51:15;;;;;;;104.63;43.92;;;;;;;-8.05;90.06;101274.34;6204158;23;20020;-79
2024/01/22 02:54:02;;;;;;;105.10;41.72;;;;;;;-8.11;90.55;101272.00;6204773;23;20426;-78
2024/01/22 02:56:47;;;;;;;105.57;43.85;;;;;;;-8.11;90.49;101282.31;6182473;23;20318;-78
2024/01/22 02:59:36;;;;;;;114.72;45.80;;;;;;;-8.15;90.49;101289.34;6182898;23;20051;-77
2024/01/22 03:02:21;;;;;;;120.28;47.40;;;;;;;-8.12;90.04;101288.38;6205607;23;20319;-78
2024/01/22 03:05:07;;;;;;;96.53;41.63;;;;;;;-8.14;90.20;101292.78;6205272;23;20065;-78
2024/01/22 03:07:53;;;;;;;125.97;48.55;;;;;;;-8.13;89.84;101280.69;6181980;23;20024;-79
2024/01/22 03:10:38;;;;;;;127.07;51.08;;;;;;;-8.05;90.50;101279.50;6204051;23;20322;-79
2024/01/22 03:13:23;;;;;;;122.18;48.47;;;;;;;-8.03;91.01;101279.44;6182456;23;20433;-78
2024/01/22 03:16:09;;;;;;;126.50;49.78;;;;;;;-8.03;91.01;101285.44;6202914;23;20020;-77
2024/01/22 03:18:55;;;;;;;104.10;41.72;;;;;;;-8.03;90.33;101290.59;6182744;23;20021;-78
2024/01/22 03:21:40;;;;;;;70.28;32.88;;;;;;;-8.21;90.57;101281.84;6181879;23;20024;-77
2024/01/22 03:24:27;;;;;;;58.83;27.40;;;;;;;-8.17;90.26;101296.31;6203683;23;20310;-76
2024/01/22 03:27:12;;;;;;;53.25;24.00;;;;;;;-8.25;90.16;101290.59;6202973;23;20418;-77
2024/01/22 03:29:58;;;;;;;48.80;23.13;;;;;;;-8.23;90.26;101293.97;6203982;23;20016;-77
2024/01/22 03:32:43;;;;;;;51.03;23.02;;;;;;;-8.29;89.51;101288.19;6182649;23;20028;-77
2024/01/22 03:35:29;;;;;;;53.28;24.75;;;;;;;-8.28;89.29;101295.03;6202813;23;20024;-77
2024/01/22 03:38:14;;;;;;;78.60;29.60;;;;;;;-8.35;89.81;101302.16;6203304;23;20402;-77
2024/01/22 03:41:00;;;;;;;72.45;26.55;;;;;;;-8.43;89.00;101287.03;6181059;23;20016;-78
2024/01/22 03:43:46;;;;;;;62.70;25.85;;;;;;;-8.41;89.57;101294.69;6202214;23;20021;-76
2024/01/22 03:46:32;;;;;;;73.47;30.70;;;;;;;-8.45;89.97;101288.81;6161628;23;20020;-76
2024/01/22 03:49:17;;;;;;;76.43;32.17;;;;;;;-8.53;89.90;101280.50;6182219;23;20021;-78
2024/01/22 03:52:02;;;;;;;53.95;25.42;;;;;;;-8.49;89.69;101281.22;6203335;23;20021;-78
2024/01/22 03:54:48;;;;;;;40.50;19.00;;;;;;;-8.56;89.33;101283.19;6202782;23;20406;-77
2024/01/22 03:57:33;;;;;;;40.85;18.65;;;;;;;-8.49;89.90;101287.25;6181546;23;20017;-79
2024/01/22 04:00:18;;;;;;;45.83;19.55;;;;;;;-8.42;90.09;101291.28;6203267;23;20306;-78
2024/01/22 04:03:04;;;;;;;47.95;19.88;;;;;;;-8.48;89.61;101286.34;6181255;23;20024;-79
2024/01/22 04:05:49;;;;;;;44.90;20.65;;;;;;;-8.51;89.85;101283.03;6203807;23;20426;-78
2024/01/22 04:08:35;;;;;;;62.50;24.00;;;;;;;-8.50;89.53;101276.97;6182822;23;20020;-79
2024/01/22 04:11:20;;;;;;;52.15;22.33;;;;;;;-8.43;89.30;101287.03;6182118;23;20021;-77
2024/01/22 04:14:06;;;;;;;46.85;21.67;;;;;;;-8.43;90.15;101281.88;6182587;23;20414;-78
2024/01/22 04:16:52;;;;;;;46.63;24.45;;;;;;;-8.53;89.90;101262.47;6202888;23;20020;-78
2024/01/22 04:19:37;;;;;;;59.47;27.08;;;;;;;-8.48;90.33;101263.13;6203340;23;20398;-78
2024/01/22 04:22:22;;;;;;;123.80;43.35;;;;;;;-8.37;89.53;101275.56;6203077;23;20016;-78
2024/01/22 04:25:08;;;;;;;92.18;31.55;;;;;;;-8.33;90.10;101269.44;6203770;23;20021;-78
2024/01/22 04:27:55;;;;;;;65.38;28.20;;;;;;;-8.25;88.98;101269.94;6202584;23;20024;-78
2024/01/22 04:30:39;;;;;;;71.07;29.63;;;;;;;-8.28;88.85;101262.31;6202657;23;20346;-78
2024/01/22 04:33:24;;;;;;;72.03;29.48;;;;;;;-8.35;89.03;101265.22;6181572;23;20326;-79
2024/01/22 04:36:10;;;;;;;58.35;26.35;;;;;;;-8.50;88.49;101256.34;6204309;23;20356;-78
2024/01/22 04:38:56;;;;;;;42.30;20.75;;;;;;;-8.50;88.81;101259.75;6202760;23;20020;-78
2024/01/22 04:41:41;;;;;;;33.22;17.33;;;;;;;-8.52;88.24;101260.72;6199483;23;20403;-77
2024/01/22 04:44:28;;;;;;;44.08;21.10;;;;;;;-8.38;88.72;101268.78;6181270;23;20387;-75
2024/01/22 04:47:14;;;;;;;63.88;31.20;;;;;;;-8.17;89.08;101274.81;6181574;23;20025;-79
2024/01/22 04:50:00;;;;;;;80.25;36.25;;;;;;;-8.02;89.89;101268.19;6181718;23;20025;-78
2024/01/22 04:52:45;;;;;;;82.57;37.58;;;;;;;-8.04;90.31;101257.13;6201672;23;20318;-77
2024/01/22 04:55:31;;;;;;;94.65;39.85;;;;;;;-8.03;89.83;101267.38;6181719;23;20406;-77
2024/01/22 04:58:16;;;;;;;76.40;35.40;;;;;;;-8.07;91.29;101255.50;6181301;23;20314;-77
2024/01/22 05:01:03;;;;;;;94.75;42.10;;;;;;;-8.19;89.76;101253.41;6201221;23;20319;-79
2024/01/22 05:03:48;;;;;;;94.05;43.08;;;;;;;-8.22;90.82;101256.09;6201634;23;20021;-78
2024/01/22 05:06:33;;;;;;;92.32;40.83;;;;;;;-8.32;90.27;101268.50;6201370;23;20025;-79
2024/01/22 05:09:19;;;;;;;87.93;38.67;;;;;;;-8.44;89.62;101269.00;6203505;23;20024;-79
2024/01/22 05:12:04;;;;;;;93.18;39.15;;;;;;;-8.58;90.94;101248.09;6202283;23;20418;-79
2024/01/22 05:14:51;;;;;;;135.90;55.13;;;;;;;-8.50;91.30;101264.91;6180529;23;20410;-78
2024/01/22 05:17:37;;;;;;;127.53;45.53;;;;;;;-8.48;91.98;101262.31;6181541;23;20025;-77
2024/01/22 05:20:22;;;;;;;184.70;58.05;;;;;;;-8.59;91.49;101244.63;6202211;23;20021;-78
2024/01/22 05:23:07;;;;;;;174.55;59.58;;;;;;;-8.43;92.37;101262.94;6181304;23;20306;-78
2024/01/22 05:25:52;;;;;;;189.00;63.35;;;;;;;-8.42;92.47;101267.22;6180643;23;20021;-78
2024/01/22 05:28:38;;;;;;;202.90;69.43;;;;;;;-8.38;92.63;101263.63;6201446;23;20415;-78
2024/01/22 05:31:24;;;;;;;212.23;68.93;;;;;;;-8.45;92.00;101241.56;6181413;23;20024;-78
2024/01/22 05:34:09;;;;;;;191.25;67.90;;;;;;;-8.41;92.91;101243.09;6180559;23;20310;-78
2024/01/22 05:36:55;;;;;;;212.02;69.53;;;;;;;-8.22;93.01;101256.09;6201932;23;20021;-76
2024/01/22 05:39:40;;;;;;;171.98;65.70;;;;;;;-8.21;93.04;101252.59;6202679;23;20020;-77
2024/01/22 05:42:26;;;;;;;146.32;56.28;;;;;;;-8.13;93.46;101257.47;6201517;23;20024;-79
2024/01/22 05:45:12;;;;;;;143.35;55.72;;;;;;;-8.15;92.50;101260.09;6204032;23;20017;-77
2024/01/22 05:47:57;;;;;;;135.80;52.72;;;;;;;-8.13;93.32;101253.16;6202704;23;20402;-78
2024/01/22 05:50:42;;;;;;;122.22;50.47;;;;;;;-8.37;92.28;101218.84;6182020;23;20021;-77
2024/01/22 05:53:28;;;;;;;122.80;51.47;;;;;;;-8.42;93.00;101231.97;6201486;23;20024;-78
2024/01/22 05:56:27;;;;;;;121.85;49.55;;;;;;;-8.47;92.94;101233.03;6201601;23;20024;-78
2024/01/22 05:59:12;;;;;;;126.18;48.83;;;;;;;-8.46;91.46;101234.69;6201725;23;20411;-77
2024/01/22 06:01:58;;;;;;;123.30;49.55;;;;;;;-8.49;91.52;101239.97;6201003;23;20021;-78
2024/01/22 06:04:42;;;;;;;132.40;51.47;;;;;;;-8.54;92.23;101237.59;6201053;23;20017;-76
2024/01/22 06:07:28;;;;;;;128.90;52.05;;;;;;;-8.53;92.70;101244.41;6180639;23;20406;-79
2024/01/22 06:10:14;;;;;;;140.20;52.90;;;;;;;-8.49;92.76;101230.53;6180526;23;20021;-79
2024/01/22 06:12:59;;;;;;;132.93;51.17;;;;;;;-8.42;92.13;101234.53;6182319;23;20112;-78
2024/01/22 06:15:45;;;;;;;230.07;56.00;;;;;;;-8.44;92.95;101218.28;6204310;23;20024;-77
2024/01/22 06:18:31;;;;;;;150.45;57.35;;;;;;;-8.16;92.43;101228.31;6182159;23;20422;-77
2024/01/22 06:21:16;;;;;;;165.48;58.15;;;;;;;-8.02;92.04;101221.75;6182796;23;20303;-77
2024/01/22 06:24:02;;;;;;;190.70;69.45;;;;;;;-7.95;93.58;101211.13;6181494;23;20021;-77
2024/01/22 06:26:47;;;;;;;233.30;83.75;;;;;;;-7.96;93.17;101212.03;6202560;23;20021;-78
2024/01/22 06:29:35;;;;;;;212.85;76.07;;;;;;;-7.97;92.41;101206.94;6182916;23;20402;-77
2024/01/22 06:32:20;;;;;;;206.43;76.97;;;;;;;-7.83;93.15;101224.41;6201016;23;20024;-80
2024/01/22 06:35:06;;;;;;;241.98;66.60;;;;;;;-7.92;92.94;101200.69;6201749;23;20024;-79
2024/01/22 06:37:52;;;;;;;245.55;62.08;;;;;;;-7.78;92.36;101213.00;6181280;23;20325;-79
2024/01/22 06:40:37;;;;;;;179.43;51.40;;;;;;;-7.66;92.60;101221.16;6159311;23;20020;-79
2024/01/22 06:43:22;;;;;;;175.80;52.83;;;;;;;-7.51;93.28;101218.75;6181131;23;20020;-80
2024/01/22 06:46:08;;;;;;;167.18;52.15;;;;;;;-7.34;92.30;101224.94;6181095;23;20318;-80
2024/01/22 06:48:54;;;;;;;141.02;49.42;;;;;;;-7.14;92.94;101219.75;6181753;23;20414;-79
2024/01/22 06:51:39;;;;;;;132.77;49.63;;;;;;;-6.76;91.89;101224.97;6160865;23;20017;-78
2024/01/22 06:54:26;;;;;;;526.95;191.10;;;;;;;-6.71;91.25;101217.81;6161620;23;20029;-78
2024/01/22 06:57:11;;;;;;;620.70;266.95;;;;;;;-6.80;91.24;101218.22;6182327;23;20020;-79
2024/01/22 06:59:59;;;;;;;177.57;64.47;;;;;;;-7.05;89.91;101219.34;6201605;23;20020;-79
2024/01/22 07:02:44;;;;;;;168.15;61.53;;;;;;;-6.78;90.45;101232.78;6202159;23;20020;-78
2024/01/22 07:05:29;;;;;;;200.82;66.75;;;;;;;-6.42;89.92;101224.25;6181260;23;20426;-79
2024/01/22 07:08:15;;;;;;;195.45;65.20;;;;;;;-6.08;89.08;101244.19;6183405;23;20418;-79
2024/01/22 07:11:00;;;;;;;165.05;57.85;;;;;;;-5.70;88.24;101243.16;6182555;23;20020;-78
2024/01/22 07:13:46;;;;;;;156.70;58.97;;;;;;;-5.13;86.16;101229.03;6202150;23;20025;-78
2024/01/22 07:16:32;;;;;;;144.40;53.05;;;;;;;-5.59;84.93;101248.66;6202865;23;20020;-77
2024/01/22 07:19:17;;;;;;;115.70;42.58;;;;;;;-5.69;86.17;101248.28;6202955;23;20318;-80
2024/01/22 07:22:03;;;;;;;132.68;45.58;;;;;;;-5.86;86.92;101248.28;6182138;23;20021;-79
2024/01/22 07:24:48;;;;;;;134.93;47.80;;;;;;;-5.88;86.75;101261.31;6203158;23;20020;-79
2024/01/22 07:27:33;;;;;;;133.15;46.08;;;;;;;-6.09;87.30;101250.25;6202772;23;20020;-78
2024/01/22 07:30:18;;;;;;;113.15;40.88;;;;;;;-6.49;88.22;101256.47;6182694;23;20020;-78
2024/01/22 07:33:05;;;;;;;118.60;39.72;;;;;;;-6.77;89.08;101259.47;6182686;23;20017;-78
2024/01/22 07:35:50;;;;;;;169.82;52.15;;;;;;;-6.58;90.42;101264.63;6182028;23;20414;-78
2024/01/22 07:38:35;;;;;;;180.60;47.92;;;;;;;-6.44;90.24;101264.03;6181984;23;20025;-80
2024/01/22 07:41:20;;;;;;;163.32;50.88;;;;;;;-6.16;90.46;101284.28;6200616;23;20069;-80
2024/01/22 07:44:06;;;;;;;159.63;52.05;;;;;;;-6.21;90.62;101279.31;6181760;23;20267;-79
2024/01/22 07:46:52;;;;;;;194.07;60.90;;;;;;;-6.07;90.60;101274.34;6183323;23;20306;-78
2024/01/22 07:49:38;;;;;;;215.30;65.22;;;;;;;-6.09;90.49;101283.06;6182686;23;20020;-79
2024/01/22 07:52:23;;;;;;;222.90;74.88;;;;;;;-5.95;90.66;101285.03;6203583;23;20016;-77
2024/01/22 07:55:12;;;;;;;229.45;81.60;;;;;;;-5.97;90.27;101276.47;6161113;23;20323;-77
2024/01/22 07:57:58;;;;;;;193.20;66.35;;;;;;;-5.93;90.44;101278.84;6203633;23;20020;-78
2024/01/22 08:00:43;;;;;;;192.80;59.70;;;;;;;-6.19;90.17;101297.38;6203558;23;20020;-78
2024/01/22 08:03:29;;;;;;;211.98;73.55;;;;;;;-5.73;90.47;101293.41;6204779;23;20020;-77
2024/01/22 08:06:14;;;;;;;208.52;73.15;;;;;;;-5.61;89.98;101300.56;6161495;23;20407;-79
2024/01/22 08:09:00;;;;;;;221.90;80.30;;;;;;;-5.44;89.74;101294.53;6202317;23;20418;-77
2024/01/22 08:11:47;;;;;;;178.02;66.63;;;;;;;-5.40;89.44;101295.22;6202181;23;20024;-79
2024/01/22 08:14:36;;;;;;;170.52;62.70;;;;;;;-5.50;88.46;101291.44;6183425;23;20403;-76
2024/01/22 08:17:20;;;;;;;155.77;57.03;;;;;;;-5.51;87.67;101297.53;6182865;23;20021;-79
2024/01/22 08:20:07;;;;;;;135.45;51.15;;;;;;;-5.54;87.12;101274.38;6202512;23;20318;-78
2024/01/22 08:22:53;;;;;;;134.82;53.45;;;;;;;-5.43;86.68;101285.03;6181376;23;20020;-79
2024/01/22 08:25:38;;;;;;;138.13;53.38;;;;;;;-5.40;85.98;101290.88;6202525;23;20021;-79
2024/01/22 08:28:24;;;;;;;137.98;53.80;;;;;;;-5.33;85.57;101287.97;6203522;23;20020;-78
2024/01/22 08:31:09;;;;;;;134.15;55.38;;;;;;;-5.18;86.03;101275.09;6204203;23;20021;-79
2024/01/22 08:33:56;;;;;;;134.07;53.08;;;;;;;-4.92;84.93;101272.88;6203252;23;20025;-77
2024/01/22 08:36:42;;;;;;;134.27;50.17;;;;;;;-4.62;84.21;101277.41;6181435;23;20020;-76
2024/01/22 08:39:27;;;;;;;146.07;55.20;;;;;;;-4.45;83.25;101277.31;6203418;23;20048;-79
2024/01/22 08:42:13;;;;;;;135.80;54.55;;;;;;;-4.28;82.46;101274.66;6197132;23;20020;-76
2024/01/22 08:44:59;;;;;;;158.63;60.45;;;;;;;-3.93;81.26;101281.41;6201793;23;20016;-77
2024/01/22 08:47:46;;;;;;;144.75;55.95;;;;;;;-3.82;81.74;101276.47;6202869;23;20024;-78
2024/01/22 08:50:31;;;;;;;132.75;51.15;;;;;;;-4.25;81.23;101251.13;6181280;23;20016;-77
2024/01/22 08:53:17;;;;;;;128.48;50.53;;;;;;;-4.25;81.22;101268.47;6181313;23;20021;-77
2024/01/22 08:56:03;;;;;;;139.82;57.20;;;;;;;-4.15;81.81;101261.00;6202088;23;20021;-76
2024/01/22 08:58:48;;;;;;;142.45;53.58;;;;;;;-4.03;81.91;101258.53;6201914;23;20024;-77
2024/01/22 09:01:34;;;;;;;148.02;57.15;;;;;;;-3.87;81.30;101255.91;6202678;23;20021;-79
2024/01/22 09:04:19;;;;;;;163.23;60.85;;;;;;;-3.76;82.21;101245.75;6181152;23;20020;-77
2024/01/22 09:07:04;;;;;;;148.77;57.67;;;;;;;-3.78;81.63;101232.00;6202193;23;20020;-77
2024/01/22 09:09:50;;;;;;;148.32;54.30;;;;;;;-3.68;81.43;101245.31;6201574;23;20020;-76
2024/01/22 09:12:36;;;;;;;152.05;56.22;;;;;;;-3.70;81.47;101239.34;6180831;23;20024;-77
2024/01/22 09:15:22;;;;;;;138.50;56.55;;;;;;;-3.72;81.57;101234.25;6202006;23;20390;-77
2024/01/22 09:18:06;;;;;;;164.35;59.60;;;;;;;-3.56;82.03;101230.78;6202026;23;20021;-77
2024/01/22 09:20:52;;;;;;;158.38;60.60;;;;;;;-3.74;81.44;101217.91;6181655;23;20410;-77
2024/01/22 09:23:38;;;;;;;175.77;70.38;;;;;;;-3.58;82.24;101235.22;6181052;23;20418;-79
2024/01/22 09:26:23;;;;;;;166.73;62.50;;;;;;;-3.49;81.00;101224.28;6201485;23;20020;-78
2024/01/22 09:29:09;;;;;;;166.00;67.57;;;;;;;-3.36;80.41;101212.22;6203332;23;20021;-77
2024/01/22 09:31:54;;;;;;;169.68;65.28;;;;;;;-3.28;79.93;101194.41;6202825;23;20020;-79
2024/01/22 09:34:40;;;;;;;160.00;64.25;;;;;;;-3.13;80.14;101194.41;6202254;23;20017;-80
2024/01/22 09:37:26;;;;;;;174.52;66.22;;;;;;;-3.07;79.24;101210.50;6201605;23;20024;-77
2024/01/22 09:40:11;;;;;;;147.95;59.45;;;;;;;-3.29;79.40;101197.94;6201366;23;20418;-76
2024/01/22 09:43:03;;;;;;;97.20;42.03;;;;;;;-3.59;80.74;101199.75;6193276;23;20017;-77
2024/01/22 09:45:49;;;;;;;69.55;26.77;;;;;;;-3.65;82.75;101210.50;6201192;23;20314;-79
2024/01/22 09:48:35;;;;;;;42.67;24.27;;;;;;;-3.55;82.38;101217.66;6181746;23;20020;-77
2024/01/22 09:51:20;;;;;;;39.55;18.50;;;;;;;-3.64;83.37;101212.19;6183125;23;20422;-78
2024/01/22 09:54:09;;;;;;;77.85;34.40;;;;;;;-3.39;82.92;101207.19;6202064;23;20025;-78
2024/01/22 09:56:57;;;;;;;112.88;45.03;;;;;;;-3.41;82.89;101172.69;6181582;23;20025;-78
2024/01/22 09:59:44;;;;;;;109.13;47.30;;;;;;;-3.11;81.54;101192.53;6201525;23;20020;-78
2024/01/22 10:02:29;;;;;;;84.20;37.15;;;;;;;-3.30;81.75;101196.25;6180445;23;20020;-78
2024/01/22 10:05:15;;;;;;;118.95;46.25;;;;;;;-2.90;82.01;101187.78;6180875;23;20406;-77
2024/01/22 10:08:01;;;;;;;108.35;44.58;;;;;;;-2.50;81.73;101196.56;6180062;23;20020;-77
2024/01/22 10:10:47;;;;;;;97.85;41.00;;;;;;;-2.63;79.43;101199.09;6180936;23;20020;-78
2024/01/22 10:13:48;;;;;;;87.45;37.95;;;;;;;-2.41;78.91;101197.75;6160522;23;20307;-77
2024/01/22 10:16:36;;;;;;;103.63;45.47;;;;;;;-2.03;79.61;101174.41;6160097;23;20017;-77
2024/01/22 10:19:26;;;;;;;92.65;41.33;;;;;;;-2.06;77.49;101182.44;6180795;23;20302;-78
2024/01/22 10:22:12;;;;;;;112.72;48.83;;;;;;;-1.79;78.26;101161.50;6180520;23;20021;-77
2024/01/22 10:24:59;;;;;;;84.93;38.42;;;;;;;-1.63;75.08;101179.56;6181302;23;20394;-76
2024/01/22 10:27:45;;;;;;;94.93;44.03;;;;;;;-1.57;75.82;101179.16;6200714;23;20020;-77
2024/01/22 10:30:30;;;;;;;86.53;41.80;;;;;;;-1.54;74.32;101184.16;6203385;23;20025;-77
2024/01/22 10:33:17;;;;;;;90.50;40.63;;;;;;;-1.45;75.54;101165.28;6201310;23;20025;-77
2024/01/22 10:36:16;;;;;;;94.13;41.70;;;;;;;-1.53;74.65;101151.94;6180282;23;20021;-76
2024/01/22 10:39:05;;;;;;;87.13;41.22;;;;;;;-1.47;74.95;101159.34;6201861;23;20021;-76
2024/01/22 10:41:51;;;;;;;82.38;37.55;;;;;;;-1.25;74.89;101150.06;6176837;23;20021;-76
2024/01/22 10:44:44;;;;;;;77.97;36.92;;;;;;;-0.97;73.37;101141.97;6201531;23;20024;-77
2024/01/22 10:47:30;;;;;;;78.40;37.63;;;;;;;-1.04;72.31;101137.28;6181559;23;20020;-78
2024/01/22 10:50:14;;;;;;;87.75;39.65;;;;;;;-0.99;72.65;101137.78;6179635;23;20422;-78
2024/01/22 10:53:00;;;;;;;87.07;40.08;;;;;;;-1.33;73.60;101110.63;6182470;23;20310;-77
2024/01/22 10:56:04;;;;;;;84.53;39.55;;;;;;;-0.81;73.66;101122.63;6182357;23;20178;-77
2024/01/22 10:58:51;;;;;;;79.17;38.13;;;;;;;-0.63;71.69;101105.59;6203437;23;20024;-78
2024/01/22 11:01:36;;;;;;;75.53;34.95;;;;;;;-0.90;71.76;101092.78;6203342;23;20020;-78
2024/01/22 11:04:27;;;;;;;86.93;38.60;;;;;;;-0.65;71.71;101097.06;6182256;23;20020;-77
2024/01/22 11:07:12;;;;;;;73.25;33.72;;;;;;;-0.64;70.84;101090.06;6181958;23;20021;-77
2024/01/22 11:10:01;;;;;;;71.10;31.83;;;;;;;-0.45;70.71;101081.69;6203060;23;20020;-77
2024/01/22 11:12:49;;;;;;;76.22;35.28;;;;;;;-0.26;69.15;101067.16;6184768;23;20020;-77
2024/01/22 11:15:35;;;;;;;85.80;38.75;;;;;;;-0.12;69.75;101062.69;6204262;23;20021;-77
2024/01/22 11:18:21;;;;;;;79.32;33.90;;;;;;;-0.05;69.06;101058.66;6182363;23;20410;-78
2024/01/22 11:21:19;;;;;;;78.68;36.70;;;;;;;-0.06;68.51;101034.31;6203597;23;20025;-77
2024/01/22 11:24:17;;;;;;;69.70;34.75;;;;;;;0.00;67.33;101033.00;6182362;23;20419;-77
2024/01/22 11:27:04;;;;;;;70.15;30.42;;;;;;;0.03;67.39;101034.53;6182168;23;20035;-77
2024/01/22 11:29:50;;;;;;;62.78;26.85;;;;;;;-0.02;67.80;101027.88;6182122;23;20028;-77
2024/01/22 11:32:35;;;;;;;59.97;30.73;;;;;;;0.23;67.75;101010.31;6202768;23;20021;-77
2024/01/22 11:35:33;;;;;;;59.72;30.95;;;;;;;0.61;66.88;101014.31;6203378;23;20032;-77
2024/01/22 11:38:51;;;;;;;157.90;82.03;;;;;;;0.77;64.61;101006.91;6203660;23;20023;-77
2024/01/22 11:41:40;;;;;;;62.67;32.50;;;;;;;0.71;63.98;100993.50;6181773;23;20025;-77
2024/01/22 11:44:27;;;;;;;86.78;46.88;;;;;;;0.93;65.30;100991.63;6203714;23;20315;-80
2024/01/22 11:47:19;;;;;;;44.45;23.92;;;;;;;1.08;64.19;100986.94;6183652;23;20310;-77
2024/01/22 11:50:07;;;;;;;57.13;27.90;;;;;;;1.09;63.56;100970.25;6202725;23;20311;-77
2024/01/22 11:52:59;;;;;;;40.47;21.77;;;;;;;1.01;61.09;100972.69;6202946;23;20486;-78
2024/01/22 11:55:56;;;;;;;52.65;24.95;;;;;;;0.88;62.39;100969.41;6203010;23;20032;-76
2024/01/22 11:58:41;;;;;;;40.50;21.42;;;;;;;1.09;64.25;100972.88;6203190;23;20043;-78
2024/01/22 12:01:28;;;;;;;67.35;32.78;;;;;;;1.23;62.61;100952.63;6182676;23;20044;-79
2024/01/22 12:04:13;;;;;;;67.05;31.95;;;;;;;1.45;64.30;100949.03;6182415;23;20027;-78
2024/01/22 12:06:59;;;;;;;73.47;36.50;;;;;;;1.65;64.28;100945.56;6202031;23;20437;-78
2024/01/22 12:09:45;;;;;;;55.63;26.80;;;;;;;1.28;63.08;100921.59;6182278;23;20429;-79
2024/01/22 12:12:31;;;;;;;50.97;23.83;;;;;;;1.15;62.52;100940.13;6181670;23;20027;-78
2024/01/22 12:15:16;;;;;;;56.88;26.55;;;;;;;1.59;62.86;100936.41;6181875;23;20024;-79
2024/01/22 12:18:02;;;;;;;58.30;27.60;;;;;;;1.29;62.10;100925.91;6204878;23;20027;-79
2024/01/22 12:20:47;;;;;;;58.63;27.85;;;;;;;1.32;62.49;100909.94;6161763;23;20314;-79
2024/01/22 12:23:34;;;;;;;69.88;31.60;;;;;;;1.33;62.57;100901.13;6185101;23;20028;-79
2024/01/22 12:26:23;;;;;;;62.42;30.20;;;;;;;1.56;62.94;100902.59;6206942;23;20425;-76
2024/01/22 12:29:20;;;;;;;55.67;27.02;;;;;;;1.55;60.77;100887.03;6207459;23;20028;-80